Terminal Aerodrome Forecast
Issued by NWS

Home | Current Version | Previous Version | Text Only | Print | Product List | Glossary On
Versions: 1 2 3 4 5 6 7 8 9 10 11 12 13 14 15 16 17 18 19 20 21 22 23 24 25 26 27 28 29 30
000
FTUS46 KMTR 272300
TAFSFO
TAF
KSFO 272324Z 2800/2906 29017G25KT P6SM FEW010 BKN015
      TEMPO 2800/2802 FEW010 SCT015
     FM280200 28017G25KT P6SM FEW008 OVC015
     FM280400 28017KT P6SM OVC015
     FM281000 27006KT P6SM FEW007 OVC012
     FM281900 30014G20KT P6SM SCT015 BKN200
     FM290300 29012KT P6SM BKN012=

USA.gov is the U.S. government's official web portal to all federal, state and local government web resources and services.